Time;durP1;ratioP1;P1;durP2;ratioP2;P2;SDS_P1;SDS_P2;PMS_P1;PMS_P2;Temp;Humidity;BMP_temperature;BMP_pressure;BME280_temperature;BME280_humidity;BME280_pressure;Samples;Min_cycle;Max_cycle;Signal;HPM_P1;HPM_P2
2023/09/10 00:01:40;;;;;;;;;;;;;;;20.25;100.00;99991.41;4940915;29;19989;-72
2023/09/10 00:04:05;;;;;;;;;;;;;;;20.29;100.00;99992.66;4937837;29;19923;-72
2023/09/10 00:06:34;;;;;;;;;;;;;;;20.27;100.00;99984.81;4921508;29;19986;-72
2023/09/10 00:08:59;;;;;;;;;;;;;;;20.33;100.00;99988.59;4939460;29;20296;-72
2023/09/10 00:11:25;;;;;;;;;;;;;;;20.29;100.00;99987.31;4937537;29;19956;-72
2023/09/10 00:13:50;;;;;;;;;;;;;;;20.25;100.00;99992.25;4939411;29;19938;-71
2023/09/10 00:16:16;;;;;;;;;;;;;;;20.18;100.00;99990.53;4940346;29;19945;-72
2023/09/10 00:18:41;;;;;;;;;;;;;;;20.18;100.00;99987.84;4940166;29;19923;-71
2023/09/10 00:21:06;;;;;;;;;;;;;;;20.22;100.00;99991.78;4941140;29;19923;-72
2023/09/10 00:23:32;;;;;;;;;;;;;;;20.20;100.00;99985.81;4937555;29;20014;-73
2023/09/10 00:25:57;;;;;;;;;;;;;;;20.18;100.00;99985.16;4921437;29;19986;-73
2023/09/10 00:28:22;;;;;;;;;;;;;;;20.16;100.00;99987.19;4940540;29;19931;-72
2023/09/10 00:30:53;;;;;;;;;;;;;;;20.07;100.00;99988.38;4938620;29;19955;-72
2023/09/10 00:33:19;;;;;;;;;;;;;;;19.98;100.00;99988.50;4940133;29;20115;-72
2023/09/10 00:35:44;;;;;;;;;;;;;;;20.03;100.00;99994.09;4939514;29;20490;-72
2023/09/10 00:38:09;;;;;;;;;;;;;;;20.09;100.00;99986.34;4907452;29;19927;-72
2023/09/10 00:40:35;;;;;;;;;;;;;;;19.98;100.00;99991.19;4941063;29;20005;-73
2023/09/10 00:43:01;;;;;;;;;;;;;;;19.93;100.00;99988.25;4938310;29;19927;-72
2023/09/10 00:45:27;;;;;;;;;;;;;;;19.90;100.00;99988.66;4921617;29;20527;-72
2023/09/10 00:47:53;;;;;;;;;;;;;;;19.90;100.00;99991.31;4940171;29;19922;-73
2023/09/10 00:50:18;;;;;;;;;;;;;;;19.88;100.00;99990.69;4938801;29;19923;-73
2023/09/10 00:52:49;;;;;;;;;;;;;;;19.80;100.00;99993.47;4935159;29;20005;-72
2023/09/10 00:55:15;;;;;;;;;;;;;;;19.86;100.00;99990.03;4938772;29;19926;-72
2023/09/10 00:57:40;;;;;;;;;;;;;;;19.79;100.00;99989.13;4925505;29;20006;-74
2023/09/10 01:00:09;;;;;;;;;;;;;;;19.86;100.00;99987.34;4937361;29;19926;-74
2023/09/10 01:02:34;;;;;;;;;;;;;;;19.83;100.00;99987.75;4932700;29;19938;-73
2023/09/10 01:05:00;;;;;;;;;;;;;;;19.80;100.00;99987.28;4920612;29;19923;-73
2023/09/10 01:07:25;;;;;;;;;;;;;;;19.79;100.00;99986.47;4940259;29;19930;-72
2023/09/10 01:09:50;;;;;;;;;;;;;;;19.78;100.00;99984.81;4940841;29;20080;-72
2023/09/10 01:12:34;;;;;;;;;;;;;;;19.77;100.00;99985.84;4937714;29;20014;-73
2023/09/10 01:15:04;;;;;;;;;;;;;;;19.71;100.00;99983.09;4934875;29;19947;-74
2023/09/10 01:17:52;;;;;;;;;;;;;;;19.61;100.00;99983.41;4938799;29;19945;-73
2023/09/10 01:20:19;;;;;;;;;;;;;;;19.67;100.00;99987.19;4913356;29;20203;-73
2023/09/10 01:23:07;;;;;;;;;;;;;;;19.59;100.00;99980.94;4937662;29;20337;-73
2023/09/10 01:25:33;;;;;;;;;;;;;;;19.59;100.00;99990.81;4934381;29;19923;-72
2023/09/10 01:28:02;;;;;;;;;;;;;;;19.62;100.00;99985.06;4938711;29;19923;-72
2023/09/10 01:30:27;;;;;;;;;;;;;;;19.60;100.00;99992.47;4937075;29;20025;-73
2023/09/10 01:32:58;;;;;;;;;;;;;;;19.51;100.00;99998.94;4939167;29;20014;-72
2023/09/10 01:35:43;;;;;;;;;;;;;;;19.44;100.00;99990.81;4938313;29;19927;-73
2023/09/10 01:38:23;;;;;;;;;;;;;;;19.47;100.00;99987.81;4934302;29;20304;-72
2023/09/10 01:41:00;;;;;;;;;;;;;;;19.43;100.00;99991.00;4907735;29;19923;-73
2023/09/10 01:43:26;;;;;;;;;;;;;;;19.38;100.00;99982.72;4936782;29;19953;-71
2023/09/10 01:45:51;;;;;;;;;;;;;;;19.38;100.00;99993.44;4937899;29;20336;-72
2023/09/10 01:48:17;;;;;;;;;;;;;;;19.35;100.00;99993.81;4937682;29;19922;-72
2023/09/10 01:50:43;;;;;;;;;;;;;;;19.31;100.00;99987.19;4937316;29;19930;-72
2023/09/10 01:53:08;;;;;;;;;;;;;;;19.30;100.00;99986.34;4934961;29;19929;-72
2023/09/10 01:55:34;;;;;;;;;;;;;;;19.33;100.00;99990.47;4933240;29;20351;-73
2023/09/10 01:57:59;;;;;;;;;;;;;;;19.33;100.00;99985.13;4934918;29;19923;-71
2023/09/10 02:00:25;;;;;;;;;;;;;;;19.31;100.00;99984.50;4917393;29;20249;-71
2023/09/10 02:02:50;;;;;;;;;;;;;;;19.37;100.00;99992.59;4936724;29;19934;-72
2023/09/10 02:05:15;;;;;;;;;;;;;;;19.42;100.00;99987.50;4936270;29;19922;-72
2023/09/10 02:07:41;;;;;;;;;;;;;;;19.36;100.00;99984.75;4937737;29;19930;-72
2023/09/10 02:10:07;;;;;;;;;;;;;;;19.29;100.00;99983.84;4921402;29;20372;-71
2023/09/10 02:12:33;;;;;;;;;;;;;;;19.27;100.00;99985.88;4934902;29;19977;-70
2023/09/10 02:14:59;;;;;;;;;;;;;;;19.26;100.00;99984.25;4938294;29;19930;-73
2023/09/10 02:17:24;;;;;;;;;;;;;;;19.21;100.00;99988.28;4936452;29;19927;-72
2023/09/10 02:19:50;;;;;;;;;;;;;;;19.23;100.00;99993.47;4938698;29;19927;-72
2023/09/10 02:22:15;;;;;;;;;;;;;;;19.16;100.00;99990.69;4920137;29;19930;-71
2023/09/10 02:24:41;;;;;;;;;;;;;;;19.12;100.00;99988.59;4933903;29;19946;-72
2023/09/10 02:27:06;;;;;;;;;;;;;;;19.07;100.00;99991.00;4934576;29;20025;-72
2023/09/10 02:29:31;;;;;;;;;;;;;;;19.05;100.00;99988.50;4935011;29;19922;-72
2023/09/10 02:31:57;;;;;;;;;;;;;;;18.95;100.00;99998.66;4936275;29;20573;-72
2023/09/10 02:34:22;;;;;;;;;;;;;;;18.93;100.00;100000.69;4936686;29;19989;-71
2023/09/10 02:36:47;;;;;;;;;;;;;;;18.88;100.00;100003.09;4932764;29;19930;-72
2023/09/10 02:39:13;;;;;;;;;;;;;;;18.82;100.00;99998.50;4937545;29;19969;-71
2023/09/10 02:41:38;;;;;;;;;;;;;;;18.86;100.00;99989.06;4936750;29;19923;-72
2023/09/10 02:44:03;;;;;;;;;;;;;;;18.85;100.00;99990.09;4934068;29;19974;-72
2023/09/10 02:46:29;;;;;;;;;;;;;;;18.90;100.00;99990.38;4937492;29;19927;-72
2023/09/10 02:48:54;;;;;;;;;;;;;;;18.92;100.00;99988.31;4935011;29;19996;-72
2023/09/10 02:51:20;;;;;;;;;;;;;;;18.93;100.00;99992.66;4935607;29;20068;-71
2023/09/10 02:53:45;;;;;;;;;;;;;;;18.92;100.00;99988.31;4937123;29;20018;-72
2023/09/10 02:56:11;;;;;;;;;;;;;;;18.93;100.00;100000.69;4932767;29;20293;-71
2023/09/10 02:58:36;;;;;;;;;;;;;;;18.94;100.00;99986.31;4919962;29;20005;-72
2023/09/10 03:01:05;;;;;;;;;;;;;;;18.86;100.00;99989.06;4935932;28;19934;-72
2023/09/10 03:03:34;;;;;;;;;;;;;;;18.88;100.00;99980.88;4917588;29;19927;-72
2023/09/10 03:05:59;;;;;;;;;;;;;;;18.91;100.00;99985.88;4938994;29;19930;-72
2023/09/10 03:08:24;;;;;;;;;;;;;;;18.83;100.00;99978.75;4935771;29;19923;-71
2023/09/10 03:10:50;;;;;;;;;;;;;;;18.82;100.00;99985.13;4931838;29;19927;-72
2023/09/10 03:13:15;;;;;;;;;;;;;;;18.82;100.00;99982.44;4916522;29;20084;-71
2023/09/10 03:15:40;;;;;;;;;;;;;;;18.88;100.00;99987.06;4930342;29;19938;-70
2023/09/10 03:18:06;;;;;;;;;;;;;;;18.94;100.00;99990.81;4918895;29;19971;-72
2023/09/10 03:20:36;;;;;;;;;;;;;;;18.94;100.00;99983.63;4932587;29;19927;-72
2023/09/10 03:23:02;;;;;;;;;;;;;;;18.99;100.00;99988.41;4932789;29;19923;-72
2023/09/10 03:25:27;;;;;;;;;;;;;;;19.03;100.00;99989.69;4938290;29;20407;-71
2023/09/10 03:27:52;;;;;;;;;;;;;;;18.86;100.00;99989.06;4937194;29;19926;-71
2023/09/10 03:30:18;;;;;;;;;;;;;;;18.87;100.00;99980.03;4924371;29;19927;-72
2023/09/10 03:32:43;;;;;;;;;;;;;;;18.78;100.00;99987.34;4921738;29;19933;-71
2023/09/10 03:35:11;;;;;;;;;;;;;;;18.75;100.00;99990.38;4925223;29;19929;-72
2023/09/10 03:37:36;;;;;;;;;;;;;;;18.71;100.00;99988.25;4921256;29;19965;-73
2023/09/10 03:40:05;;;;;;;;;;;;;;;18.72;100.00;99987.25;4936252;29;19923;-72
2023/09/10 03:42:31;;;;;;;;;;;;;;;18.76;100.00;99981.34;4936850;29;19959;-73
2023/09/10 03:44:56;;;;;;;;;;;;;;;18.74;100.00;99982.53;4937458;29;19930;-72
2023/09/10 03:47:21;;;;;;;;;;;;;;;18.59;100.00;99981.72;4932769;29;19958;-72
2023/09/10 03:49:47;;;;;;;;;;;;;;;18.51;100.00;99984.44;4934488;29;19923;-72
2023/09/10 03:52:16;;;;;;;;;;;;;;;18.48;100.00;99979.47;4939026;29;20023;-72
2023/09/10 03:54:41;;;;;;;;;;;;;;;18.34;100.00;99979.25;4935160;29;19927;-72
2023/09/10 03:57:07;;;;;;;;;;;;;;;18.24;100.00;99976.03;4916645;29;19923;-72
2023/09/10 03:59:32;;;;;;;;;;;;;;;18.30;100.00;99977.16;4926868;29;20021;-72
2023/09/10 04:01:59;;;;;;;;;;;;;;;18.33;100.00;99977.59;4925062;29;20431;-72
2023/09/10 04:04:25;;;;;;;;;;;;;;;18.30;100.00;99977.97;4923606;29;20029;-72
2023/09/10 04:06:50;;;;;;;;;;;;;;;18.13;100.00;99971.13;4937489;29;20033;-72
2023/09/10 04:09:16;;;;;;;;;;;;;;;18.07;100.00;99974.53;4934522;29;19927;-72
2023/09/10 04:11:41;;;;;;;;;;;;;;;18.12;100.00;99980.16;4940723;29;19922;-73
2023/09/10 04:14:07;;;;;;;;;;;;;;;18.11;100.00;99973.13;4937430;29;19926;-72
2023/09/10 04:16:32;;;;;;;;;;;;;;;18.06;100.00;99974.69;4940788;29;19923;-73
2023/09/10 04:18:58;;;;;;;;;;;;;;;18.04;100.00;99982.88;4941315;29;19930;-72
2023/09/10 04:21:23;;;;;;;;;;;;;;;18.05;100.00;99981.88;4935468;29;19922;-73
2023/09/10 04:23:48;;;;;;;;;;;;;;;18.05;100.00;99987.22;4937656;29;19930;-70
2023/09/10 04:26:14;;;;;;;;;;;;;;;18.02;100.00;99984.09;4939640;29;19973;-72
2023/09/10 04:28:40;;;;;;;;;;;;;;;18.03;100.00;99986.56;4920352;29;19930;-72
2023/09/10 04:31:08;;;;;;;;;;;;;;;18.04;100.00;99990.88;4941600;29;19934;-72
2023/09/10 04:33:33;;;;;;;;;;;;;;;18.00;100.00;99986.94;4922989;29;19945;-72
2023/09/10 04:36:01;;;;;;;;;;;;;;;17.84;100.00;99987.06;4939815;29;20376;-71
2023/09/10 04:38:26;;;;;;;;;;;;;;;17.69;100.00;99989.66;4936794;29;19962;-71
2023/09/10 04:40:51;;;;;;;;;;;;;;;17.69;100.00;99988.84;4941797;29;19976;-72
2023/09/10 04:43:17;;;;;;;;;;;;;;;17.82;100.00;99994.41;4936500;29;20287;-71
2023/09/10 04:45:43;;;;;;;;;;;;;;;17.80;100.00;99996.41;4910884;29;19923;-70
2023/09/10 04:48:08;;;;;;;;;;;;;;;17.82;100.00;99994.41;4921596;29;19978;-72
2023/09/10 04:50:34;;;;;;;;;;;;;;;17.83;100.00;99990.75;4936554;29;20280;-71
2023/09/10 04:53:00;;;;;;;;;;;;;;;17.90;100.00;99992.53;4923023;29;20364;-72
2023/09/10 04:55:25;;;;;;;;;;;;;;;17.84;100.00;99995.91;4934933;29;19978;-72
2023/09/10 04:57:51;;;;;;;;;;;;;;;17.72;100.00;99993.84;4936867;29;19977;-73
2023/09/10 05:00:17;;;;;;;;;;;;;;;17.57;100.00;100002.56;4918833;29;19923;-73
2023/09/10 05:02:42;;;;;;;;;;;;;;;17.35;100.00;100002.53;4926211;29;19923;-72
2023/09/10 05:05:08;;;;;;;;;;;;;;;17.33;100.00;99994.69;4934807;29;19918;-71
2023/09/10 05:07:33;;;;;;;;;;;;;;;17.28;100.00;99999.75;4934997;29;19978;-72
2023/09/10 05:09:58;;;;;;;;;;;;;;;17.20;100.00;99999.75;4934463;29;20372;-72
2023/09/10 05:12:24;;;;;;;;;;;;;;;17.25;100.00;100005.44;4938741;29;20394;-73
2023/09/10 05:14:49;;;;;;;;;;;;;;;17.33;100.00;100009.88;4933828;29;19923;-72
2023/09/10 05:17:14;;;;;;;;;;;;;;;17.38;100.00;100013.69;4935600;29;19930;-73
2023/09/10 05:19:40;;;;;;;;;;;;;;;17.42;100.00;100007.00;4942146;29;19927;-72
2023/09/10 05:22:06;;;;;;;;;;;;;;;17.49;100.00;100021.31;4937756;29;19930;-73
2023/09/10 05:24:31;;;;;;;;;;;;;;;17.49;100.00;100015.97;4933511;29;19922;-73
2023/09/10 05:26:56;;;;;;;;;;;;;;;17.58;100.00;100014.06;4938582;29;19930;-73
2023/09/10 05:29:22;;;;;;;;;;;;;;;17.57;100.00;100023.91;4933818;29;19944;-73
2023/09/10 05:31:48;;;;;;;;;;;;;;;17.62;100.00;100020.75;4935820;29;19923;-73
2023/09/10 05:34:13;;;;;;;;;;;;;;;17.61;100.00;100019.09;4939478;29;19922;-73
2023/09/10 05:36:39;;;;;;;;;;;;;;;17.66;100.00;100011.38;4933403;29;19933;-72
2023/09/10 05:39:05;;;;;;;;;;;;;;;17.70;100.00;100017.19;4937959;29;19970;-73
2023/09/10 05:41:30;;;;;;;;;;;;;;;17.65;100.00;100015.06;4936800;29;19938;-72
2023/09/10 05:43:56;;;;;;;;;;;;;;;17.65;100.00;100014.22;4937503;29;19930;-73
2023/09/10 05:46:22;;;;;;;;;;;;;;;17.75;100.00;100009.47;4939237;29;19923;-73
2023/09/10 05:48:47;;;;;;;;;;;;;;;17.77;100.00;100007.47;4933355;29;20328;-72
2023/09/10 05:51:12;;;;;;;;;;;;;;;17.77;100.00;100004.81;4933374;29;20335;-72
2023/09/10 05:53:40;;;;;;;;;;;;;;;17.61;100.00;100008.44;4936345;29;19922;-73
2023/09/10 05:56:05;;;;;;;;;;;;;;;17.66;100.00;100015.91;4910153;29;20017;-72
2023/09/10 05:58:32;;;;;;;;;;;;;;;17.74;100.00;100007.81;4934805;29;19929;-73
2023/09/10 06:00:57;;;;;;;;;;;;;;;17.83;100.00;100009.44;4921266;29;19939;-72
2023/09/10 06:03:23;;;;;;;;;;;;;;;17.90;100.00;100013.06;4938539;29;19989;-71
2023/09/10 06:05:48;;;;;;;;;;;;;;;17.98;100.00;100015.63;4933341;29;20405;-72
2023/09/10 06:08:14;;;;;;;;;;;;;;;18.01;100.00;100020.63;4939456;29;19923;-71
2023/09/10 06:10:39;;;;;;;;;;;;;;;18.01;100.00;100025.97;4936293;29;19985;-71
2023/09/10 06:13:04;;;;;;;;;;;;;;;18.11;100.00;100026.56;4934516;29;20010;-72
2023/09/10 06:15:30;;;;;;;;;;;;;;;18.16;100.00;100018.84;4937739;29;19933;-71
2023/09/10 06:17:57;;;;;;;;;;;;;;;18.18;100.00;100022.16;4919411;29;20025;-71
2023/09/10 06:20:22;;;;;;;;;;;;;;;18.22;100.00;100034.13;4937330;29;19923;-72
2023/09/10 06:22:48;;;;;;;;;;;;;;;18.31;100.00;100022.38;4917842;29;19930;-72
2023/09/10 06:25:13;;;;;;;;;;;;;;;18.42;100.00;100023.78;4921198;29;19923;-72
2023/09/10 06:27:39;;;;;;;;;;;;;;;18.45;100.00;100026.06;4938158;29;19923;-72
2023/09/10 06:30:04;;;;;;;;;;;;;;;18.45;100.00;100025.25;4933022;29;19994;-71
2023/09/10 06:32:30;;;;;;;;;;;;;;;18.57;100.00;100021.16;4935191;29;19993;-73
2023/09/10 06:34:55;;;;;;;;;;;;;;;18.65;100.00;100029.94;4935148;28;19926;-73
2023/09/10 06:37:20;;;;;;;;;;;;;;;18.68;100.00;100026.88;4917081;29;19938;-72
2023/09/10 06:39:46;;;;;;;;;;;;;;;18.74;100.00;100033.31;4923639;29;20304;-72
2023/09/10 06:42:12;;;;;;;;;;;;;;;18.82;100.00;100035.91;4935181;29;19931;-72
2023/09/10 06:44:43;;;;;;;;;;;;;;;18.85;100.00;100030.19;4918871;29;19923;-72
2023/09/10 06:47:09;;;;;;;;;;;;;;;18.96;100.00;100037.78;4937841;29;19941;-72
2023/09/10 06:49:34;;;;;;;;;;;;;;;19.00;100.00;100036.38;4936142;29;20010;-72
2023/09/10 06:52:00;;;;;;;;;;;;;;;19.04;100.00;100034.97;4935584;29;20009;-71
2023/09/10 06:54:25;;;;;;;;;;;;;;;19.11;100.00;100035.06;4933050;29;19961;-71
2023/09/10 06:56:50;;;;;;;;;;;;;;;19.10;100.00;100034.25;4932602;29;19931;-72
2023/09/10 06:59:16;;;;;;;;;;;;;;;19.03;100.00;100033.31;4933840;29;19922;-72
2023/09/10 07:01:42;;;;;;;;;;;;;;;19.03;100.00;100036.00;4933485;29;19958;-71
2023/09/10 07:04:20;;;;;;;;;;;;;;;19.11;100.00;100035.06;4936654;29;19923;-71
2023/09/10 07:06:46;;;;;;;;;;;;;;;19.27;100.00;100028.69;4933646;29;20003;-71
2023/09/10 07:09:12;;;;;;;;;;;;;;;19.37;100.00;100030.06;4933647;29;20307;-72
2023/09/10 07:11:37;;;;;;;;;;;;;;;19.51;100.00;100025.72;4920267;29;19923;-72
2023/09/10 07:14:03;;;;;;;;;;;;;;;19.49;100.00;100033.13;4933751;29;20380;-72
2023/09/10 07:16:28;;;;;;;;;;;;;;;19.53;100.00;100039.75;4933950;29;19930;-71
2023/09/10 07:18:53;;;;;;;;;;;;;;;19.67;100.00;100041.56;4916788;29;20017;-70
2023/09/10 07:21:19;;;;;;;;;;;;;;;19.80;100.00;100040.84;4934052;29;19929;-71
2023/09/10 07:23:44;;;;;;;;;;;;;;;19.87;100.00;100037.22;4933132;29;19919;-72
2023/09/10 07:26:10;;;;;;;;;;;;;;;20.00;100.00;100036.53;4933810;29;20014;-72
2023/09/10 07:28:35;;;;;;;;;;;;;;;20.13;100.00;100038.50;4933893;29;19953;-72
2023/09/10 07:31:00;;;;;;;;;;;;;;;20.15;100.00;100039.13;4932059;29;19981;-71
2023/09/10 07:33:26;;;;;;;;;;;;;;;20.23;100.00;100041.69;4933888;29;19923;-71
2023/09/10 07:35:52;;;;;;;;;;;;;;;20.36;100.00;100036.47;4932017;29;19933;-72
2023/09/10 07:38:17;;;;;;;;;;;;;;;20.41;100.00;100032.19;4933202;29;19922;-72
2023/09/10 07:40:42;;;;;;;;;;;;;;;20.50;100.00;100040.88;4932585;29;19922;-72
2023/09/10 07:43:08;;;;;;;;;;;;;;;20.55;100.00;100027.75;4933436;29;19919;-72
2023/09/10 07:45:33;;;;;;;;;;;;;;;20.66;100.00;100045.16;4933691;29;19969;-73
2023/09/10 07:47:59;;;;;;;;;;;;;;;20.78;100.00;100041.72;4936296;29;19931;-70
2023/09/10 07:50:27;;;;;;;;;;;;;;;20.88;100.00;100040.53;4937175;29;19919;-70
2023/09/10 07:52:53;;;;;;;;;;;;;;;20.95;100.00;100036.88;4937054;29;19930;-73
2023/09/10 07:55:18;;;;;;;;;;;;;;;21.02;100.00;100036.91;4937662;29;19923;-72
2023/09/10 07:57:44;;;;;;;;;;;;;;;21.10;100.00;100034.03;4940885;29;19923;-72
2023/09/10 08:00:09;;;;;;;;;;;;;;;21.15;100.00;100036.97;4938961;29;19945;-73
2023/09/10 08:02:38;;;;;;;;;;;;;;;21.23;100.00;100036.81;4936757;29;19922;-72
2023/09/10 08:05:05;;;;;;;;;;;;;;;21.32;100.00;100037.50;4936949;29;20179;-72
2023/09/10 08:07:31;;;;;;;;;;;;;;;21.38;100.00;100037.53;4254894;29;10000825;-71
2023/09/10 08:09:56;;;;;;;;;;;;;;;21.47;100.00;100036.31;4934137;29;19938;-72
2023/09/10 08:12:21;;;;;;;;;;;;;;;21.51;100.00;100026.81;4934657;29;20368;-73
2023/09/10 08:14:47;;;;;;;;;;;;;;;21.54;100.00;100031.78;4935013;29;19931;-73
2023/09/10 08:17:12;;;;;;;;;;;;;;;21.61;100.00;100035.31;4934034;29;20017;-72
2023/09/10 08:19:37;;;;;;;;;;;;;;;21.65;100.00;100035.72;4934083;29;19923;-73
2023/09/10 08:22:03;;;;;;;;;;;;;;;21.74;100.00;100041.72;4934012;29;19926;-73
2023/09/10 08:24:28;;;;;;;;;;;;;;;21.83;100.00;100040.53;4933927;29;19986;-73
2023/09/10 08:26:54;;;;;;;;;;;;;;;21.93;100.00;100040.94;4933784;29;19934;-73
2023/09/10 08:29:19;;;;;;;;;;;;;;;22.02;100.00;100040.59;4934926;29;19926;-73
2023/09/10 08:31:44;;;;;;;;;;;;;;;22.12;100.00;100040.19;4940387;29;19926;-73
2023/09/10 08:34:10;;;;;;;;;;;;;;;22.21;100.00;100038.94;4940143;29;20529;-73
2023/09/10 08:36:35;;;;;;;;;;;;;;;22.29;100.00;100038.75;4919576;29;20427;-73
2023/09/10 08:39:00;;;;;;;;;;;;;;;22.35;100.00;100032.53;4940749;29;19930;-72
2023/09/10 08:41:32;;;;;;;;;;;;;;;22.42;100.00;100036.06;4940160;29;20017;-73
2023/09/10 08:43:58;;;;;;;;;;;;;;;22.47;100.00;100038.13;4935327;29;19927;-75
2023/09/10 08:46:30;;;;;;;;;;;;;;;22.52;100.00;100040.19;4936048;29;19929;-72
2023/09/10 08:48:55;;;;;;;;;;;;;;;22.53;100.00;100025.69;4936187;29;20376;-73
2023/09/10 08:51:21;;;;;;;;;;;;;;;22.58;100.00;100029.41;4937806;29;19931;-71
2023/09/10 08:53:47;;;;;;;;;;;;;;;22.69;100.00;100026.09;4597914;29;9999726;-73
2023/09/10 08:56:18;;;;;;;;;;;;;;;22.79;100.00;100025.69;4813507;29;10000579;-73
2023/09/10 08:58:45;;;;;;;;;;;;;;;22.85;100.00;100030.25;4249195;29;10000690;-72
2023/09/10 09:01:11;;;;;;;;;;;;;;;22.93;100.00;100021.94;4938081;29;19962;-74
2023/09/10 09:03:37;;;;;;;;;;;;;;;23.04;100.00;100017.75;4935597;29;19926;-74
2023/09/10 09:06:03;;;;;;;;;;;;;;;23.12;100.00;100018.34;4934885;29;19923;-74
2023/09/10 09:08:30;;;;;;;;;;;;;;;23.22;100.00;100026.78;4938635;29;19930;-73
2023/09/10 09:10:56;;;;;;;;;;;;;;;23.28;100.00;100015.16;4935555;29;19926;-74
2023/09/10 09:13:22;;;;;;;;;;;;;;;23.36;100.00;100022.19;4935918;29;20025;-74
2023/09/10 09:15:48;;;;;;;;;;;;;;;23.44;100.00;100018.44;4933988;29;20359;-74
2023/09/10 09:18:16;;;;;;;;;;;;;;;23.49;100.00;100014.09;4940912;29;19918;-74
2023/09/10 09:20:46;;;;;;;;;;;;;;;23.59;100.00;100016.31;4938014;29;20408;-74
2023/09/10 09:23:17;;;;;;;;;;;;;;;23.64;100.00;100008.38;4936954;29;20312;-75
2023/09/10 09:25:43;;;;;;;;;;;;;;;23.67;100.00;100016.88;4938987;29;20037;-75
2023/09/10 09:28:09;;;;;;;;;;;;;;;23.74;100.00;100018.72;4924759;29;20017;-73
2023/09/10 09:30:35;;;;;;;;;;;;;;;23.80;100.00;100018.66;4934505;29;19936;-72
2023/09/10 09:33:00;;;;;;;;;;;;;;;23.84;100.00;100008.28;4942186;29;19954;-73
2023/09/10 09:35:26;;;;;;;;;;;;;;;23.89;100.00;100006.56;4937081;29;19962;-73
2023/09/10 09:37:51;;;;;;;;;;;;;;;23.94;100.00;100003.22;4935972;29;19938;-73
2023/09/10 09:40:21;;;;;;;;;;;;;;;24.01;100.00;100001.31;4938468;29;19930;-73
2023/09/10 09:42:46;;;;;;;;;;;;;;;24.08;100.00;99994.81;4938235;29;19930;-73
2023/09/10 09:45:12;;;;;;;;;;;;;;;24.15;100.00;99996.66;4939363;29;19923;-72
2023/09/10 09:47:37;;;;;;;;;;;;;;;24.23;100.00;99997.22;4940165;29;19923;-73
2023/09/10 09:50:03;;;;;;;;;;;;;;;24.32;100.00;99995.06;4935729;29;20376;-72
2023/09/10 09:52:29;;;;;;;;;;;;;;;24.36;100.00;99997.09;4937950;29;19943;-72
2023/09/10 09:54:54;;;;;;;;;;;;;;;24.41;100.00;99999.13;4936597;29;19977;-73
2023/09/10 09:57:19;;;;;;;;;;;;;;;24.42;100.00;100000.78;4939784;29;19930;-74
2023/09/10 09:59:45;;;;;;;;;;;;;;;24.50;100.00;99991.59;4937496;29;19926;-73
2023/09/10 10:02:12;;;;;;;;;;;;;;;24.51;100.00;99993.22;4937457;29;19926;-72
2023/09/10 10:04:39;;;;;;;;;;;;;;;24.56;100.00;99996.09;4938624;29;20380;-73
2023/09/10 10:07:04;;;;;;;;;;;;;;;24.61;100.00;99991.69;4939434;29;20469;-74
2023/09/10 10:09:37;;;;;;;;;;;;;;;24.72;100.00;99985.53;4935726;29;20025;-74
2023/09/10 10:12:03;;;;;;;;;;;;;;;24.82;100.00;99977.75;4937936;29;19922;-75
2023/09/10 10:14:29;;;;;;;;;;;;;;;24.94;100.00;99974.31;4936867;29;19929;-73
2023/09/10 10:16:55;;;;;;;;;;;;;;;25.01;100.00;99969.66;4934214;29;19926;-72
2023/09/10 10:19:21;;;;;;;;;;;;;;;25.02;100.00;99974.03;4938976;29;19931;-73
2023/09/10 10:21:46;;;;;;;;;;;;;;;25.03;100.00;99965.69;4938305;29;19930;-74
2023/09/10 10:24:13;;;;;;;;;;;;;;;25.07;100.00;99971.47;4935422;29;20005;-74
2023/09/10 10:26:39;;;;;;;;;;;;;;;25.09;100.00;99961.28;4937581;29;19957;-73
2023/09/10 10:29:05;;;;;;;;;;;;;;;25.11;100.00;99957.28;4920191;29;19923;-72
2023/09/10 10:31:32;;;;;;;;;;;;;;;25.14;100.00;99951.44;4935206;29;19930;-73
2023/09/10 10:34:14;;;;;;;;;;;;;;;25.17;100.00;99947.44;4938496;29;19923;-73
2023/09/10 10:36:45;;;;;;;;;;;;;;;25.22;100.00;99947.56;4930508;29;19969;-74
2023/09/10 10:39:14;;;;;;;;;;;;;;;25.24;100.00;99940.06;4935185;29;20044;-73
2023/09/10 10:41:44;;;;;;;;;;;;;;;25.26;100.00;99943.38;4936595;29;19930;-73
2023/09/10 10:44:16;;;;;;;;;;;;;;;25.34;100.00;99939.50;4932505;29;19929;-74
2023/09/10 10:46:42;;;;;;;;;;;;;;;25.37;100.00;99939.06;4932391;29;19931;-74
2023/09/10 10:49:08;;;;;;;;;;;;;;;25.43;100.00;99941.69;4938501;29;20409;-73
2023/09/10 10:51:37;;;;;;;;;;;;;;;25.50;100.00;99937.00;4934527;29;19955;-74
2023/09/10 10:54:02;;;;;;;;;;;;;;;25.56;100.00;99933.41;4940795;29;19922;-74
2023/09/10 10:56:28;;;;;;;;;;;;;;;25.68;100.00;99931.53;4932620;29;19923;-73
2023/09/10 10:58:53;;;;;;;;;;;;;;;25.69;100.00;99930.50;4934440;29;20375;-73
2023/09/10 11:01:19;;;;;;;;;;;;;;;25.73;100.00;99930.88;4936840;29;19930;-72
2023/09/10 11:03:48;;;;;;;;;;;;;;;25.84;100.00;99921.13;4935135;29;19923;-73
2023/09/10 11:06:14;;;;;;;;;;;;;;;25.90;100.00;99918.31;4933502;29;19927;-73
2023/09/10 11:08:41;;;;;;;;;;;;;;;25.97;100.00;99923.63;4932444;29;19930;-74
2023/09/10 11:11:08;;;;;;;;;;;;;;;26.02;100.00;99915.63;4935173;29;19922;-73
2023/09/10 11:13:34;;;;;;;;;;;;;;;26.06;100.00;99911.38;4936996;29;19930;-74
2023/09/10 11:16:05;;;;;;;;;;;;;;;26.15;100.00;99909.97;4936567;29;19930;-73
2023/09/10 11:18:36;;;;;;;;;;;;;;;26.22;100.00;99909.84;4938640;29;20384;-73
2023/09/10 11:21:05;;;;;;;;;;;;;;;26.30;100.00;99914.94;4938227;29;19926;-74
2023/09/10 11:23:31;;;;;;;;;;;;;;;26.35;98.71;99909.63;4941629;29;19990;-72
2023/09/10 11:26:19;;;;;;;;;;;;;;;26.38;99.85;99912.72;4941402;28;19931;-73
2023/09/10 11:28:54;;;;;;;;;;;;;;;26.48;97.53;99910.22;4936724;29;19961;-74
2023/09/10 11:34:22;;;;;;;;;;;;;;;26.67;95.27;99904.66;4943786;29;19923;-74
2023/09/10 11:36:55;;;;;;;;;;;;;;;26.79;95.56;99905.44;4936153;29;19930;-74
2023/09/10 11:39:21;;;;;;;;;;;;;;;26.96;92.01;99900.13;4943713;29;20406;-73
2023/09/10 11:41:47;;;;;;;;;;;;;;;27.08;91.02;99904.44;4942082;29;19923;-73
2023/09/10 11:44:13;;;;;;;;;;;;;;;27.20;89.78;99902.50;4942440;29;19926;-73
2023/09/10 11:46:38;;;;;;;;;;;;;;;27.20;90.00;99898.97;4943413;29;20017;-73
2023/09/10 11:49:03;;;;;;;;;;;;;;;27.21;89.11;99904.16;4944391;29;20450;-73
2023/09/10 11:51:29;;;;;;;;;;;;;;;27.30;89.30;99891.03;4940441;29;19931;-73
2023/09/10 11:53:54;;;;;;;;;;;;;;;27.42;89.56;99893.66;4945589;29;20025;-73
2023/09/10 11:56:20;;;;;;;;;;;;;;;27.59;88.71;99894.53;4940331;29;19922;-74
2023/09/10 11:58:45;;;;;;;;;;;;;;;27.74;88.25;99883.97;4943630;29;19922;-74
2023/09/10 12:01:11;;;;;;;;;;;;;;;27.94;86.00;99886.97;4942692;29;19927;-73
2023/09/10 12:03:36;;;;;;;;;;;;;;;28.09;84.54;99884.50;4922458;29;20074;-74
2023/09/10 12:06:02;;;;;;;;;;;;;;;28.26;83.88;99878.25;4930094;29;19930;-72
2023/09/10 12:08:27;;;;;;;;;;;;;;;28.45;83.27;99883.13;4945261;29;20017;-73
2023/09/10 12:10:54;;;;;;;;;;;;;;;28.60;81.92;99879.78;4940793;29;20002;-74
2023/09/10 12:13:19;;;;;;;;;;;;;;;28.74;81.37;99883.00;4943546;29;19923;-73
2023/09/10 12:15:45;;;;;;;;;;;;;;;28.92;82.28;99867.16;4942908;29;19945;-73
2023/09/10 12:18:10;;;;;;;;;;;;;;;29.17;80.89;99872.03;4943639;28;19922;-73
2023/09/10 12:20:36;;;;;;;;;;;;;;;29.37;80.75;99873.34;4942088;29;20300;-73
2023/09/10 12:23:03;;;;;;;;;;;;;;;29.54;78.13;99863.16;4942317;29;19927;-73
2023/09/10 12:25:28;;;;;;;;;;;;;;;29.69;75.96;99861.38;4939788;29;19923;-74
2023/09/10 12:27:54;;;;;;;;;;;;;;;29.81;75.51;99860.41;4944545;29;19969;-74
2023/09/10 12:30:20;;;;;;;;;;;;;;;29.92;75.93;99859.44;4940969;29;19923;-73
2023/09/10 12:32:45;;;;;;;;;;;;;;;30.08;75.09;99859.25;4941829;29;19945;-74